createdAt,value
2022-11-19T00:02:10.627Z,19.90
2022-11-19T00:04:40.358Z,19.17
2022-11-19T00:07:08.717Z,19.63
2022-11-19T00:09:37.018Z,17.63
2022-11-19T00:12:23.013Z,19.17
2022-11-19T00:14:51.306Z,19.17
2022-11-19T00:17:20.372Z,19.23
2022-11-19T00:19:50.050Z,18.23
2022-11-19T00:22:18.393Z,18.23
2022-11-19T00:24:46.782Z,19.60
2022-11-19T00:27:15.376Z,19.27
2022-11-19T00:29:43.746Z,19.10
2022-11-19T00:32:12.073Z,19.00
2022-11-19T00:34:40.463Z,18.37
2022-11-19T00:37:10.344Z,18.13
2022-11-19T00:39:38.665Z,18.80
2022-11-19T00:42:07.122Z,18.43
2022-11-19T00:44:37.306Z,18.67
2022-11-19T00:47:05.846Z,18.47
2022-11-19T00:49:34.242Z,18.23
2022-11-19T00:52:02.544Z,19.50
2022-11-19T00:54:32.507Z,19.97
2022-11-19T00:57:00.841Z,18.93
2022-11-19T00:59:29.432Z,17.77
2022-11-19T01:01:57.900Z,18.43
2022-11-19T01:04:26.332Z,18.20
2022-11-19T01:06:55.411Z,18.23
2022-11-19T01:09:24.785Z,19.03
2022-11-19T01:11:54.439Z,18.90
2022-11-19T01:14:22.722Z,20.27
2022-11-19T01:16:50.962Z,19.50
2022-11-19T01:19:19.485Z,19.20
2022-11-19T01:21:47.916Z,19.87
2022-11-19T01:24:16.225Z,19.97
2022-11-19T01:26:46.038Z,19.93
2022-11-19T01:29:16.335Z,20.00
2022-11-19T01:31:44.787Z,20.03
2022-11-19T01:34:13.154Z,19.43
2022-11-19T01:36:41.444Z,18.87
2022-11-19T01:39:09.817Z,20.63
2022-11-19T01:41:38.189Z,18.73
2022-11-19T01:44:07.476Z,18.93
2022-11-19T01:46:37.991Z,19.47
2022-11-19T01:49:08.152Z,19.97
2022-11-19T01:51:37.518Z,18.97
2022-11-19T01:54:07.528Z,19.43
2022-11-19T01:56:35.949Z,19.77
2022-11-19T01:59:05.663Z,20.00
2022-11-19T02:01:34.657Z,19.60
2022-11-19T02:04:04.923Z,19.30
2022-11-19T02:06:34.097Z,19.40
2022-11-19T02:09:02.497Z,19.57
2022-11-19T02:11:51.937Z,20.93
2022-11-19T02:14:29.923Z,19.60
2022-11-19T02:17:00.948Z,20.80
2022-11-19T02:19:44.113Z,20.27
2022-11-19T02:22:18.236Z,20.40
2022-11-19T02:24:53.242Z,19.07
2022-11-19T02:27:38.671Z,19.97
2022-11-19T02:30:09.777Z,19.93
2022-11-19T02:32:42.425Z,20.43
2022-11-19T02:35:15.983Z,19.87
2022-11-19T02:37:46.936Z,20.13
2022-11-19T02:40:18.658Z,21.07
2022-11-19T02:42:51.183Z,19.53
2022-11-19T02:45:24.474Z,19.83
2022-11-19T02:47:54.395Z,20.20
2022-11-19T02:50:23.795Z,19.70
2022-11-19T02:52:52.813Z,19.83
2022-11-19T02:55:21.860Z,20.13
2022-11-19T02:57:52.233Z,19.67
2022-11-19T03:00:39.639Z,19.23
2022-11-19T03:03:27.064Z,19.17
2022-11-19T03:05:57.856Z,19.77
2022-11-19T03:08:26.507Z,20.27
2022-11-19T03:10:58.432Z,20.60
2022-11-19T03:13:46.226Z,20.13
2022-11-19T03:16:35.508Z,20.63
2022-11-19T03:19:07.855Z,20.30
2022-11-19T03:21:38.857Z,20.23
2022-11-19T03:24:09.054Z,20.03
2022-11-19T03:26:39.394Z,20.10
2022-11-19T03:29:09.646Z,19.63
2022-11-19T03:31:40.183Z,18.67
2022-11-19T03:34:11.515Z,18.93
2022-11-19T03:36:41.420Z,19.07
2022-11-19T03:39:11.570Z,20.10
2022-11-19T03:41:41.821Z,19.53
2022-11-19T03:44:12.274Z,20.13
2022-11-19T03:46:42.890Z,19.33
2022-11-19T03:49:11.742Z,19.13
2022-11-19T03:51:42.422Z,20.27
2022-11-19T03:54:10.881Z,19.23
2022-11-19T03:56:40.513Z,18.87
2022-11-19T03:59:11.521Z,19.33
2022-11-19T04:01:40.149Z,18.67
2022-11-19T04:04:27.528Z,19.30
2022-11-19T04:06:56.201Z,19.37
2022-11-19T04:09:24.529Z,19.13
2022-11-19T04:14:20.084Z,18.87
2022-11-19T04:16:48.314Z,17.50
2022-11-19T04:19:18.909Z,18.63
2022-11-19T04:21:47.296Z,18.40
2022-11-19T04:24:15.608Z,17.60
2022-11-19T04:26:43.916Z,17.47
2022-11-19T04:29:12.267Z,18.03
2022-11-19T04:31:40.598Z,18.50
2022-11-19T04:34:08.895Z,18.27
2022-11-19T04:36:40.109Z,17.83
2022-11-19T04:39:08.399Z,17.77
2022-11-19T04:41:36.773Z,18.53
2022-11-19T04:44:05.204Z,17.40
2022-11-19T04:46:33.536Z,17.53
2022-11-19T04:49:01.956Z,17.83
2022-11-19T04:51:30.253Z,17.80
2022-11-19T04:53:59.882Z,16.67
2022-11-19T04:56:28.303Z,17.17
2022-11-19T04:58:56.587Z,17.13
2022-11-19T05:01:24.947Z,16.93
2022-11-19T05:03:53.344Z,18.50
2022-11-19T05:06:21.652Z,16.93
2022-11-19T05:08:49.947Z,17.40
2022-11-19T05:11:19.546Z,15.57
2022-11-19T05:13:47.890Z,17.43
2022-11-19T05:16:16.220Z,17.53
2022-11-19T05:18:44.690Z,17.53
2022-11-19T05:21:13.009Z,17.27
2022-11-19T05:23:41.366Z,16.13
2022-11-19T05:26:09.763Z,16.50
2022-11-19T05:28:40.235Z,16.83
2022-11-19T05:31:08.690Z,16.83
2022-11-19T05:33:37.052Z,16.60
2022-11-19T05:36:05.498Z,16.57
2022-11-19T05:38:33.759Z,17.10
2022-11-19T05:41:02.074Z,17.37
2022-11-19T05:43:30.485Z,15.70
2022-11-19T05:46:02.326Z,16.33
2022-11-19T05:48:30.683Z,16.17
2022-11-19T05:50:59.275Z,14.90
2022-11-19T05:53:28.055Z,15.23
2022-11-19T05:55:56.350Z,15.40
2022-11-19T05:58:24.677Z,15.37
2022-11-19T06:00:55.426Z,14.50
2022-11-19T06:03:25.108Z,14.33
2022-11-19T06:05:53.550Z,15.37
2022-11-19T06:08:21.842Z,15.33
2022-11-19T06:10:50.176Z,15.10
2022-11-19T06:13:18.561Z,14.80
2022-11-19T06:15:46.868Z,15.23
2022-11-19T06:18:15.129Z,14.97
2022-11-19T06:20:44.916Z,15.70
2022-11-19T06:23:13.339Z,15.80
2022-11-19T06:25:41.615Z,14.10
2022-11-19T06:28:10.008Z,14.90
2022-11-19T06:30:38.655Z,13.20
2022-11-19T06:33:06.913Z,13.93
2022-11-19T06:35:35.228Z,13.53
2022-11-19T06:38:05.087Z,14.37
2022-11-19T06:40:33.454Z,14.40
2022-11-19T06:43:01.906Z,14.03
2022-11-19T06:45:30.223Z,13.43
2022-11-19T06:47:58.598Z,13.47
2022-11-19T06:50:26.981Z,13.67
2022-11-19T06:52:55.217Z,13.60
2022-11-19T06:55:24.847Z,12.97
2022-11-19T06:57:53.145Z,13.43
2022-11-19T07:00:21.587Z,13.97
2022-11-19T07:02:49.914Z,12.73
2022-11-19T07:05:18.171Z,13.57
2022-11-19T07:07:46.495Z,12.17
2022-11-19T07:10:14.865Z,12.73
2022-11-19T07:12:44.510Z,12.63
2022-11-19T07:15:13.087Z,13.17
2022-11-19T07:17:42.390Z,13.13
2022-11-19T07:20:11.474Z,13.27
2022-11-19T07:22:39.737Z,13.17
2022-11-19T07:25:08.482Z,12.17
2022-11-19T07:27:36.729Z,12.20
2022-11-19T07:30:07.482Z,12.07
2022-11-19T07:32:35.884Z,12.77
2022-11-19T07:35:04.283Z,12.17
2022-11-19T07:37:32.640Z,12.20
2022-11-19T07:40:00.965Z,12.40
2022-11-19T07:42:46.732Z,11.13
2022-11-19T07:45:16.718Z,11.60
2022-11-19T07:47:45.001Z,12.00
2022-11-19T07:50:13.403Z,10.63
2022-11-19T07:52:41.671Z,10.27
2022-11-19T07:55:10.475Z,10.97
2022-11-19T07:57:38.939Z,10.37
2022-11-19T08:00:08.131Z,10.33
2022-11-19T08:02:38.043Z,10.07
2022-11-19T08:05:06.641Z,10.50
2022-11-19T08:07:35.005Z,11.13
2022-11-19T08:10:03.334Z,11.20
2022-11-19T08:12:31.769Z,11.00
2022-11-19T08:15:00.064Z,10.40
2022-11-19T08:17:42.178Z,9.03
2022-11-19T08:20:12.459Z,9.77
2022-11-19T08:22:42.154Z,10.60
2022-11-19T08:25:10.585Z,10.40
2022-11-19T08:27:38.892Z,9.73
2022-11-19T08:30:08.175Z,9.33
2022-11-19T08:32:37.854Z,9.27
2022-11-19T08:35:06.470Z,10.27
2022-11-19T08:37:36.482Z,9.37
2022-11-19T08:40:04.897Z,9.57
2022-11-19T08:42:51.001Z,8.20
2022-11-19T08:45:20.947Z,9.10
2022-11-19T08:47:49.462Z,9.50
2022-11-19T08:50:17.859Z,8.97
2022-11-19T08:52:47.593Z,9.20
2022-11-19T08:55:15.977Z,8.77
2022-11-19T08:57:44.250Z,8.63
2022-11-19T09:00:13.118Z,8.50
2022-11-19T09:02:41.763Z,8.47
2022-11-19T09:05:14.401Z,9.07
2022-11-19T09:07:43.198Z,8.30
2022-11-19T09:10:12.975Z,9.30
2022-11-19T09:12:41.277Z,8.30
2022-11-19T09:15:09.947Z,8.87
2022-11-19T09:17:42.404Z,8.43
2022-11-19T09:20:14.210Z,8.07
2022-11-19T09:22:42.585Z,8.27
2022-11-19T09:25:11.168Z,8.27
2022-11-19T09:27:40.966Z,7.47
2022-11-19T09:30:10.434Z,8.43
2022-11-19T09:32:38.727Z,7.30
2022-11-19T09:35:07.590Z,7.80
2022-11-19T09:37:36.240Z,7.37
2022-11-19T09:40:05.859Z,7.27
2022-11-19T09:42:36.981Z,7.53
2022-11-19T09:45:12.471Z,7.80
2022-11-19T09:47:48.767Z,7.50
2022-11-19T09:50:18.857Z,8.07
2022-11-19T09:52:49.606Z,7.60
2022-11-19T09:55:19.931Z,7.83
2022-11-19T09:57:51.004Z,6.93
2022-11-19T10:00:22.234Z,7.33
2022-11-19T10:02:50.844Z,6.73
2022-11-19T10:05:26.575Z,7.07
2022-11-19T10:08:01.975Z,7.00
2022-11-19T10:10:37.098Z,6.63
2022-11-19T10:13:13.973Z,6.47
2022-11-19T10:15:48.767Z,7.10
2022-11-19T10:18:22.610Z,6.60
2022-11-19T10:20:54.874Z,7.03
2022-11-19T10:23:26.254Z,24.07
2022-11-19T10:25:58.277Z,6.70
2022-11-19T10:28:28.433Z,6.60
2022-11-19T10:31:00.871Z,6.30
2022-11-19T10:33:31.142Z,6.30
2022-11-19T10:36:00.899Z,6.73
2022-11-19T10:38:31.539Z,6.30
2022-11-19T10:41:01.969Z,6.17
2022-11-19T10:43:33.004Z,5.70
2022-11-19T10:46:04.653Z,6.20
2022-11-19T10:48:38.658Z,6.37
2022-11-19T10:51:12.559Z,6.27
2022-11-19T10:53:41.111Z,5.70
2022-11-19T10:56:13.866Z,5.80
2022-11-19T10:58:44.595Z,5.37
2022-11-19T11:01:17.828Z,5.57
2022-11-19T11:03:48.412Z,5.33
2022-11-19T11:06:16.888Z,6.27
2022-11-19T11:08:54.932Z,5.77
2022-11-19T11:11:25.900Z,5.53
2022-11-19T11:14:11.818Z,5.53
2022-11-19T11:16:46.973Z,5.67
2022-11-19T11:19:16.561Z,5.50
2022-11-19T11:21:45.419Z,5.80
2022-11-19T11:24:14.519Z,5.57
2022-11-19T11:26:42.848Z,5.63
2022-11-19T11:29:26.314Z,6.20
2022-11-19T11:31:56.121Z,5.53
2022-11-19T11:34:31.853Z,5.57
2022-11-19T11:37:01.213Z,5.83
2022-11-19T11:39:30.611Z,5.63
2022-11-19T11:42:05.914Z,5.47
2022-11-19T11:44:35.941Z,4.80
2022-11-19T11:47:06.854Z,6.30
2022-11-19T11:49:36.159Z,6.73
2022-11-19T11:52:07.438Z,6.63
2022-11-19T11:54:36.186Z,6.07
2022-11-19T11:57:15.852Z,7.27
2022-11-19T11:59:44.462Z,7.17
2022-11-19T12:02:22.731Z,6.23
2022-11-19T12:04:52.276Z,5.27
2022-11-19T12:07:27.168Z,4.77
2022-11-19T12:10:03.285Z,5.57
2022-11-19T12:12:36.841Z,5.30
2022-11-19T12:15:11.829Z,4.40
2022-11-19T12:17:45.330Z,5.13
2022-11-19T12:20:25.529Z,5.33
2022-11-19T12:23:00.021Z,5.83
2022-11-19T12:25:32.432Z,6.60
2022-11-19T12:28:17.465Z,5.60
2022-11-19T12:30:51.671Z,4.93
2022-11-19T12:33:27.451Z,5.27
2022-11-19T12:35:58.922Z,4.30
2022-11-19T12:38:31.834Z,4.80
2022-11-19T12:41:06.626Z,4.13
2022-11-19T12:43:43.389Z,4.50
2022-11-19T12:46:16.307Z,4.57
2022-11-19T12:48:52.399Z,4.97
2022-11-19T12:51:25.743Z,5.20
2022-11-19T12:54:04.530Z,5.50
2022-11-19T12:56:37.098Z,5.27
2022-11-19T12:59:14.632Z,4.80
2022-11-19T13:01:45.014Z,4.47
2022-11-19T13:04:19.252Z,5.00
2022-11-19T13:06:49.960Z,5.53
2022-11-19T13:09:20.354Z,5.20
2022-11-19T13:11:51.800Z,4.80
2022-11-19T13:14:26.616Z,4.87
2022-11-19T13:16:55.766Z,4.00
2022-11-19T13:19:27.882Z,5.37
2022-11-19T13:21:58.638Z,5.60
2022-11-19T13:24:32.169Z,4.67
2022-11-19T13:27:04.596Z,4.87
2022-11-19T13:29:38.603Z,5.33
2022-11-19T13:32:12.976Z,5.10
2022-11-19T13:34:47.304Z,4.90
2022-11-19T13:37:17.141Z,5.57
2022-11-19T13:39:48.015Z,5.20
2022-11-19T13:42:35.403Z,5.20
2022-11-19T13:45:03.703Z,5.00
2022-11-19T13:47:37.384Z,5.17
2022-11-19T13:50:08.940Z,5.00
2022-11-19T13:52:39.957Z,5.20
2022-11-19T13:55:23.510Z,5.23
2022-11-19T13:57:51.831Z,5.27
2022-11-19T14:00:24.250Z,4.73
2022-11-19T14:03:10.471Z,4.87
2022-11-19T14:05:56.409Z,4.80
2022-11-19T14:08:37.755Z,4.57
2022-11-19T14:11:24.399Z,5.10
2022-11-19T14:14:03.046Z,4.70
2022-11-19T14:16:53.375Z,4.50
2022-11-19T14:19:39.475Z,4.83
2022-11-19T14:22:36.504Z,4.90
2022-11-19T14:25:27.142Z,4.50
2022-11-19T14:27:55.553Z,4.53
2022-11-19T14:30:43.948Z,5.50
2022-11-19T14:33:27.137Z,4.63
2022-11-19T14:35:55.440Z,4.63
2022-11-19T14:38:33.179Z,4.63
2022-11-19T14:41:19.527Z,5.23
2022-11-19T14:44:11.003Z,5.07
2022-11-19T14:46:40.537Z,5.17
2022-11-19T14:49:20.380Z,5.17
2022-11-19T14:51:53.747Z,4.83
2022-11-19T14:54:32.240Z,5.50
2022-11-19T14:57:03.808Z,5.27
2022-11-19T14:59:35.719Z,5.17
2022-11-19T15:02:06.619Z,5.00
2022-11-19T15:04:36.417Z,5.10
2022-11-19T15:07:10.779Z,4.90
2022-11-19T15:09:57.710Z,5.53
2022-11-19T15:12:35.074Z,6.10
2022-11-19T15:15:18.297Z,5.03
2022-11-19T15:17:49.091Z,4.70
2022-11-19T15:20:23.465Z,5.10
2022-11-19T15:22:58.922Z,5.43
2022-11-19T15:25:31.636Z,5.70
2022-11-19T15:28:02.522Z,5.70
2022-11-19T15:30:39.190Z,5.63
2022-11-19T15:33:24.292Z,5.70
2022-11-19T15:36:04.599Z,6.30
2022-11-19T15:38:34.936Z,5.77
2022-11-19T15:41:05.305Z,5.70
2022-11-19T15:43:36.878Z,6.43
2022-11-19T15:46:07.718Z,6.47
2022-11-19T15:48:41.108Z,6.60
2022-11-19T15:51:13.381Z,6.67
2022-11-19T15:53:58.568Z,7.20
2022-11-19T15:56:27.818Z,8.00
2022-11-19T15:58:56.325Z,7.30
2022-11-19T16:01:24.841Z,7.90
2022-11-19T16:03:55.586Z,8.27
2022-11-19T16:06:25.747Z,9.63
2022-11-19T16:08:54.793Z,13.43
2022-11-19T16:11:42.331Z,13.70
2022-11-19T16:14:37.849Z,15.27
2022-11-19T16:17:30.604Z,11.97
2022-11-19T16:20:08.387Z,12.60
2022-11-19T16:22:39.554Z,13.70
2022-11-19T16:25:12.467Z,14.00
2022-11-19T16:27:43.243Z,12.13
2022-11-19T16:30:18.023Z,10.47
2022-11-19T16:32:46.499Z,9.10
2022-11-19T16:35:21.852Z,9.20
2022-11-19T16:37:50.820Z,9.20
2022-11-19T16:40:19.964Z,9.17
2022-11-19T16:42:50.879Z,8.97
2022-11-19T16:45:20.773Z,9.77
2022-11-19T16:47:53.129Z,9.63
2022-11-19T16:50:28.325Z,9.50
2022-11-19T16:52:57.185Z,8.97
2022-11-19T16:55:44.346Z,8.80
2022-11-19T16:58:16.087Z,9.70
2022-11-19T17:00:47.749Z,10.13
2022-11-19T17:03:21.057Z,9.87
2022-11-19T17:05:52.403Z,9.43
2022-11-19T17:08:23.196Z,9.27
2022-11-19T17:11:11.551Z,9.63
2022-11-19T17:13:39.838Z,9.27
2022-11-19T17:16:18.283Z,8.70
2022-11-19T17:18:46.663Z,9.87
2022-11-19T17:21:25.159Z,10.87
2022-11-19T17:23:53.770Z,10.57
2022-11-19T17:26:25.548Z,11.47
2022-11-19T17:28:56.710Z,11.53
2022-11-19T17:31:26.373Z,11.73
2022-11-19T17:33:55.615Z,9.93
2022-11-19T17:36:26.444Z,11.23
2022-11-19T17:38:54.843Z,10.90
2022-11-19T17:41:39.380Z,10.83
2022-11-19T17:44:24.894Z,9.90
2022-11-19T17:46:53.226Z,9.83
2022-11-19T17:49:21.512Z,10.30
2022-11-19T17:51:51.295Z,12.50
2022-11-19T17:54:20.092Z,11.33
2022-11-19T17:56:49.175Z,12.70
2022-11-19T17:59:17.506Z,14.23
2022-11-19T18:01:45.916Z,12.60
2022-11-19T18:04:14.757Z,11.90
2022-11-19T18:06:43.250Z,12.00
2022-11-19T18:09:13.195Z,12.50
2022-11-19T18:11:41.614Z,13.60
2022-11-19T18:14:10.902Z,15.17
2022-11-19T18:16:40.701Z,15.03
2022-11-19T18:19:12.232Z,15.03
2022-11-19T18:21:41.674Z,16.33
2022-11-19T18:24:13.910Z,16.57
2022-11-19T18:26:42.683Z,16.73
2022-11-19T18:29:11.058Z,16.33
2022-11-19T18:31:43.178Z,16.37
2022-11-19T18:34:13.293Z,15.77
2022-11-19T18:36:41.635Z,15.93
2022-11-19T18:39:09.965Z,16.10
2022-11-19T18:41:39.767Z,15.07
2022-11-19T18:44:25.973Z,14.83
2022-11-19T18:46:54.584Z,15.27
2022-11-19T18:49:23.471Z,16.23
2022-11-19T18:51:52.298Z,16.53
2022-11-19T18:54:20.833Z,17.47
2022-11-19T18:56:50.544Z,18.80
2022-11-19T18:59:19.545Z,16.57
2022-11-19T19:01:48.448Z,17.27
2022-11-19T19:04:16.997Z,15.53
2022-11-19T19:06:45.768Z,14.27
2022-11-19T19:09:20.176Z,13.83
2022-11-19T19:12:12.621Z,12.33
2022-11-19T19:14:42.186Z,11.93
2022-11-19T19:17:11.048Z,11.53
2022-11-19T19:19:39.367Z,10.43
2022-11-19T19:22:08.106Z,9.80
2022-11-19T19:24:36.868Z,10.50
2022-11-19T19:27:06.663Z,10.93
2022-11-19T19:29:35.010Z,10.40
2022-11-19T19:32:03.667Z,10.13
2022-11-19T19:34:32.005Z,10.80
2022-11-19T19:37:00.438Z,10.50
2022-11-19T19:39:28.729Z,11.20
2022-11-19T19:41:57.049Z,10.57
2022-11-19T19:44:26.828Z,11.47
2022-11-19T19:46:55.264Z,10.67
2022-11-19T19:49:24.140Z,11.90
2022-11-19T19:51:52.707Z,12.50
2022-11-19T19:54:21.076Z,13.40
2022-11-19T19:56:49.618Z,13.50
2022-11-19T19:59:18.002Z,13.30
2022-11-19T20:01:50.771Z,13.57
2022-11-19T20:04:19.168Z,12.60
2022-11-19T20:06:48.401Z,13.63
2022-11-19T20:09:16.810Z,13.20
2022-11-19T20:11:45.241Z,14.40
2022-11-19T20:14:13.819Z,14.83
2022-11-19T20:16:42.876Z,14.57
2022-11-19T20:19:15.265Z,15.37
2022-11-19T20:21:44.027Z,12.60
2022-11-19T20:24:13.754Z,12.90
2022-11-19T20:26:43.036Z,13.77
2022-11-19T20:29:12.347Z,13.10
2022-11-19T20:31:40.695Z,29.00
2022-11-19T20:34:09.055Z,15.37
2022-11-19T20:36:38.812Z,12.97
2022-11-19T20:39:07.620Z,13.17
2022-11-19T20:41:53.836Z,12.43
2022-11-19T20:44:23.213Z,14.00
2022-11-19T20:46:52.879Z,14.37
2022-11-19T20:49:22.514Z,14.20
2022-11-19T20:51:52.764Z,14.67
2022-11-19T20:54:21.450Z,14.50
2022-11-19T20:56:50.293Z,15.03
2022-11-19T20:59:19.111Z,13.80
2022-11-19T21:01:49.092Z,15.43
2022-11-19T21:04:17.587Z,14.63
2022-11-19T21:06:46.076Z,14.67
2022-11-19T21:09:16.566Z,13.67
2022-11-19T21:11:48.101Z,13.97
2022-11-19T21:14:19.007Z,13.53
2022-11-19T21:16:47.641Z,12.90
2022-11-19T21:19:16.706Z,13.63
2022-11-19T21:21:45.753Z,12.67
2022-11-19T21:24:14.527Z,17.40
2022-11-19T21:26:44.577Z,18.20
2022-11-19T21:29:13.256Z,23.37
2022-11-19T21:31:44.519Z,23.00
2022-11-19T21:34:13.818Z,23.23
2022-11-19T21:36:43.523Z,26.97
2022-11-19T21:39:12.448Z,26.27
2022-11-19T21:41:41.000Z,22.77
2022-11-19T21:44:13.324Z,21.23
2022-11-19T21:46:51.836Z,20.60
2022-11-19T21:49:21.229Z,19.20
2022-11-19T21:51:50.089Z,17.03
2022-11-19T21:54:19.021Z,18.90
2022-11-19T21:56:49.020Z,18.43
2022-11-19T21:59:19.844Z,18.03
2022-11-19T22:01:54.507Z,19.50
2022-11-19T22:04:24.492Z,18.00
2022-11-19T22:06:52.887Z,19.80
2022-11-19T22:09:21.619Z,17.33
2022-11-19T22:11:50.134Z,13.33
2022-11-19T22:14:20.214Z,12.73
2022-11-19T22:16:49.287Z,13.80
2022-11-19T22:19:18.785Z,12.13
2022-11-19T22:21:49.511Z,11.87
2022-11-19T22:24:18.213Z,13.97
2022-11-19T22:26:47.148Z,24.20
2022-11-19T22:29:18.324Z,20.60
2022-11-19T22:31:48.274Z,18.63
2022-11-19T22:34:16.576Z,16.80
2022-11-19T22:36:44.828Z,15.87
2022-11-19T22:39:13.603Z,16.47
2022-11-19T22:41:41.963Z,16.97
2022-11-19T22:44:10.371Z,16.20
2022-11-19T22:46:38.714Z,14.70
2022-11-19T22:49:08.394Z,17.20
2022-11-19T22:51:36.686Z,17.77
2022-11-19T22:54:05.015Z,16.93
2022-11-19T22:56:33.491Z,18.73
2022-11-19T22:59:01.739Z,18.43
2022-11-19T23:01:30.907Z,19.73
2022-11-19T23:04:00.387Z,19.10
2022-11-19T23:06:30.550Z,19.00
2022-11-19T23:08:58.916Z,20.30
2022-11-19T23:11:44.970Z,18.83
2022-11-19T23:14:14.308Z,19.80
2022-11-19T23:16:43.196Z,18.23
2022-11-19T23:19:12.166Z,17.53
2022-11-19T23:21:42.280Z,15.70
2022-11-19T23:24:11.327Z,16.13
2022-11-19T23:26:39.724Z,16.10
2022-11-19T23:29:08.380Z,16.43
2022-11-19T23:31:37.657Z,14.87
2022-11-19T23:34:05.996Z,15.70
2022-11-19T23:36:35.374Z,17.10
2022-11-19T23:39:06.274Z,15.53
2022-11-19T23:41:35.584Z,16.70
2022-11-19T23:44:04.211Z,15.93
2022-11-19T23:46:33.938Z,16.00
2022-11-19T23:49:02.705Z,14.13
2022-11-19T23:51:32.081Z,15.83
2022-11-19T23:54:00.738Z,15.67
2022-11-19T23:56:30.748Z,13.87
2022-11-19T23:58:59.526Z,13.67
